College Crest, Oregon
Current Conditions -  °F | °C
As of 10:54 AM on Monday 20 Oct 2014 (Local Time) from KEUG Reporting Station
Overcast Overcast  
Wind Chill: 58°   Ceiling: 3900
Heat Index: 58°   Visibility: 10mi
Dew Point: 55°   Wind: 7mph
Humidity: 90%   Direction: 160°SSE
Pressure: 29.82"   Gusts: NA
Location:  44.0685°N, 123.082°W
Report Text: KEUG 201754Z 16006KT 10SM FEW008 SCT024 OVC039 14/13 A2982 RMK AO2 RAE1658B19E28 SLP098 VCSH P0000 60020 T01440128 10144 20139 53013 $
Loading
Personal Weather Stations






























Interactive Weather Map
Tropical Storm Tracking
New forecast layout! Learn more

10-Day Weather Forecast

Advertisements
Track Severe Weather on mobile